Time;durP1;ratioP1;P1;durP2;ratioP2;P2;SDS_P1;SDS_P2;PMS_P1;PMS_P2;Temp;Humidity;BMP_temperature;BMP_pressure;BME280_temperature;BME280_humidity;BME280_pressure;Samples;Min_cycle;Max_cycle;Signal;HPM_P1;HPM_P2
2022/06/10 00:01:27;;;;;;;8.20;1.88;;;;;;;12.82;77.95;99169.53;4098200;28;20213;-64
2022/06/10 00:03:29;;;;;;;2.65;1.40;;;;;;;12.82;77.91;99172.28;4106699;28;20227;-62
2022/06/10 00:05:31;;;;;;;2.58;1.90;;;;;;;12.83;77.59;99171.19;4107595;28;20294;-64
2022/06/10 00:07:34;;;;;;;1.55;1.45;;;;;;;12.81;77.85;99176.13;4106757;28;20206;-65
2022/06/10 00:09:35;;;;;;;2.17;1.65;;;;;;;12.81;77.38;99178.88;4087807;28;20215;-63
2022/06/10 00:11:43;;;;;;;2.88;1.67;;;;;;;12.80;77.33;99182.69;4102930;28;20829;-65
2022/06/10 00:13:46;;;;;;;1.85;1.40;;;;;;;12.75;77.10;99188.09;4105375;28;20233;-64
2022/06/10 00:15:48;;;;;;;5.13;1.75;;;;;;;12.74;77.14;99189.19;4109459;28;20211;-63
2022/06/10 00:17:50;;;;;;;2.38;1.73;;;;;;;12.71;77.27;99189.66;4107145;28;20301;-63
2022/06/10 00:19:52;;;;;;;3.05;2.10;;;;;;;12.69;77.09;99189.06;4112039;28;20221;-63
2022/06/10 00:21:53;;;;;;;2.40;2.00;;;;;;;12.67;77.19;99199.47;4107293;28;20338;-62
2022/06/10 00:23:55;;;;;;;2.50;1.67;;;;;;;12.64;77.32;99194.47;4107150;28;20578;-62
2022/06/10 00:25:56;;;;;;;1.67;1.50;;;;;;;12.61;77.10;99192.22;4106949;28;20214;-65
2022/06/10 00:27:58;;;;;;;2.60;1.73;;;;;;;12.57;77.15;99193.78;4104365;28;20236;-61
2022/06/10 00:29:59;;;;;;;1.75;1.30;;;;;;;12.54;77.01;99191.56;4104960;28;20203;-66
2022/06/10 00:32:01;;;;;;;1.85;1.65;;;;;;;12.50;76.94;99195.84;4107293;28;20706;-64
2022/06/10 00:34:02;;;;;;;2.97;1.50;;;;;;;12.50;76.79;99193.09;4109556;28;20206;-63
2022/06/10 00:36:04;;;;;;;2.67;2.33;;;;;;;12.49;76.91;99196.94;4106386;28;20217;-64
2022/06/10 00:38:06;;;;;;;3.40;2.08;;;;;;;12.46;77.04;99186.47;4107492;28;20203;-61
2022/06/10 00:40:18;;;;;;;3.25;1.65;;;;;;;12.46;76.79;99194.69;4108664;28;21188;-64
2022/06/10 00:42:22;;;;;;;1.95;1.73;;;;;;;12.42;77.06;99193.50;4108303;28;20230;-63
2022/06/10 00:44:35;;;;;;;12.70;1.50;;;;;;;12.37;76.92;99196.16;4104222;28;20207;-60
2022/06/10 00:46:36;;;;;;;2.58;1.60;;;;;;;12.31;77.13;99194.38;4108250;28;20209;-62
2022/06/10 00:48:53;;;;;;;1.58;1.48;;;;;;;12.27;77.10;99200.59;4107941;28;20585;-63
2022/06/10 00:50:55;;;;;;;1.70;1.60;;;;;;;12.24;77.00;99201.94;4106526;28;20194;-62
2022/06/10 00:53:02;;;;;;;2.85;1.80;;;;;;;12.18;76.84;99197.41;4092110;28;20223;-65
2022/06/10 00:55:06;;;;;;;3.33;2.03;;;;;;;12.13;77.20;99200.06;4106234;28;20218;-63
2022/06/10 00:57:13;;;;;;;7.57;2.13;;;;;;;12.10;77.70;99195.06;4085046;28;20948;-64
2022/06/10 00:59:29;;;;;;;5.95;1.67;;;;;;;12.07;78.03;99197.44;4081155;28;20218;-64
2022/06/10 01:01:32;;;;;;;2.63;2.15;;;;;;;12.06;77.96;99193.03;4083412;28;21027;-62
2022/06/10 01:03:35;;;;;;;10.13;2.45;;;;;;;12.05;77.58;99197.69;4093928;28;20234;-64
2022/06/10 01:05:37;;;;;;;2.08;1.58;;;;;;;12.03;77.50;99194.34;4103360;28;20217;-63
2022/06/10 01:07:46;;;;;;;1.77;1.33;;;;;;;12.00;77.43;99189.38;4104037;28;20606;-63
2022/06/10 01:09:48;;;;;;;2.40;1.63;;;;;;;11.98;77.66;99185.19;4104686;28;20202;-63
2022/06/10 01:11:52;;;;;;;1.80;1.52;;;;;;;11.96;77.59;99185.44;4109061;28;20211;-62
2022/06/10 01:14:28;;;;;;;7.50;1.85;;;;;;;11.96;77.17;99182.69;4106469;28;20240;-62
2022/06/10 01:16:51;;;;;;;2.08;1.55;;;;;;;11.97;77.22;99189.03;4103707;28;20242;-63
2022/06/10 01:19:18;;;;;;;2.88;1.88;;;;;;;11.92;77.29;99197.94;4106043;28;20506;-63
2022/06/10 01:22:02;;;;;;;2.28;1.50;;;;;;;11.87;77.38;99200.63;4101447;28;20239;-62
2022/06/10 01:24:29;;;;;;;2.25;1.50;;;;;;;11.82;77.57;99197.75;4038311;29;20684;-62
2022/06/10 01:29:20;;;;;;;1.98;1.63;;;;;;;11.75;77.54;99197.06;4111262;28;20242;-63
2022/06/10 01:31:30;;;;;;;1.70;1.60;;;;;;;11.72;77.50;99192.03;4107392;28;20588;-62
2022/06/10 01:33:38;;;;;;;2.63;1.60;;;;;;;11.72;77.67;99196.69;4109991;28;21363;-62
2022/06/10 01:35:50;;;;;;;1.80;1.40;;;;;;;11.70;77.35;99194.19;4109766;28;20299;-62
2022/06/10 01:37:59;;;;;;;4.38;1.20;;;;;;;11.64;77.72;99189.66;4093544;28;20211;-61
2022/06/10 01:40:05;;;;;;;2.60;2.03;;;;;;;11.64;77.82;99195.16;4105796;28;20342;-62
2022/06/10 01:42:29;;;;;;;2.35;1.55;;;;;;;11.63;77.64;99198.97;4105727;28;20245;-62
2022/06/10 01:44:59;;;;;;;1.60;1.45;;;;;;;11.65;77.66;99199.56;4104684;28;20221;-62
2022/06/10 01:47:06;;;;;;;1.42;1.30;;;;;;;11.67;77.47;99200.16;4097674;28;20216;-62
2022/06/10 01:49:30;;;;;;;2.10;2.00;;;;;;;11.69;77.48;99199.91;4100328;28;20208;-62
2022/06/10 01:51:53;;;;;;;2.50;2.25;;;;;;;11.65;76.87;99196.00;4121382;28;20200;-62
2022/06/10 01:54:32;;;;;;;2.08;1.85;;;;;;;11.56;77.26;99194.66;4089518;28;20291;-62
2022/06/10 01:56:40;;;;;;;2.55;1.85;;;;;;;11.50;77.23;99198.38;4095038;28;20214;-63
2022/06/10 01:58:49;;;;;;;3.75;2.10;;;;;;;11.50;77.19;99206.59;4103930;28;20199;-65
2022/06/10 02:00:53;;;;;;;1.58;1.48;;;;;;;11.49;77.20;99189.28;4082704;28;20250;-62
2022/06/10 02:03:07;;;;;;;4.55;2.13;;;;;;;11.47;77.30;99194.19;4099614;28;20274;-63
2022/06/10 02:05:14;;;;;;;1.75;1.40;;;;;;;11.45;77.53;99196.31;4089047;28;20290;-61
2022/06/10 02:07:21;;;;;;;1.83;1.42;;;;;;;11.44;77.47;99189.16;4099465;28;20210;-63
2022/06/10 02:09:45;;;;;;;5.18;1.85;;;;;;;11.44;77.30;99199.31;4103850;28;20219;-63
2022/06/10 02:11:54;;;;;;;3.55;1.85;;;;;;;11.44;77.10;99199.31;4108470;28;20622;-60
2022/06/10 02:14:21;;;;;;;2.13;1.83;;;;;;;11.44;77.43;99205.63;4105167;28;20266;-62
2022/06/10 02:16:28;;;;;;;9.32;1.48;;;;;;;11.40;77.38;99204.44;4086874;28;20207;-63
2022/06/10 02:18:41;;;;;;;1.45;1.20;;;;;;;11.36;77.27;99205.97;4108806;28;20249;-63
2022/06/10 02:20:47;;;;;;;2.60;1.48;;;;;;;11.33;77.07;99198.25;4105718;28;20306;-62
2022/06/10 02:22:49;;;;;;;2.70;2.05;;;;;;;11.31;76.91;99205.84;4092444;28;20718;-62
2022/06/10 02:24:57;;;;;;;1.80;1.70;;;;;;;11.30;76.71;99204.19;4112183;28;20840;-62
2022/06/10 02:27:02;;;;;;;1.88;1.70;;;;;;;11.29;76.73;99207.16;4092630;28;20239;-62
2022/06/10 02:29:09;;;;;;;2.25;1.52;;;;;;;11.25;76.72;99208.72;4110170;28;20211;-62
2022/06/10 02:31:23;;;;;;;2.28;1.88;;;;;;;11.20;76.95;99209.44;4092764;28;20222;-61
2022/06/10 02:33:25;;;;;;;2.05;1.85;;;;;;;11.17;76.78;99209.91;4095238;28;20571;-63
2022/06/10 02:35:33;;;;;;;2.13;1.60;;;;;;;11.17;76.91;99209.91;4105811;28;20603;-62
2022/06/10 02:37:53;;;;;;;25.25;2.85;;;;;;;11.13;76.91;99208.72;4092456;28;20293;-62
2022/06/10 02:40:11;;;;;;;3.33;1.90;;;;;;;11.10;77.02;99213.84;4103852;28;20732;-62
2022/06/10 02:42:24;;;;;;;5.40;1.83;;;;;;;11.04;77.07;99212.88;4093362;28;20494;-62
2022/06/10 02:44:52;;;;;;;1.55;1.45;;;;;;;10.99;77.15;99218.22;4090187;28;20333;-59
2022/06/10 02:47:14;;;;;;;4.50;1.83;;;;;;;10.97;77.69;99214.88;4109650;28;20217;-62
2022/06/10 02:49:17;;;;;;;2.38;1.63;;;;;;;10.95;77.42;99227.97;4092320;28;20294;-62
2022/06/10 02:51:20;;;;;;;1.88;1.75;;;;;;;10.94;77.35;99231.78;4108295;28;20203;-63
2022/06/10 02:53:22;;;;;;;2.10;1.73;;;;;;;10.97;77.32;99227.75;4108162;28;21004;-61
2022/06/10 02:55:26;;;;;;;2.10;1.92;;;;;;;10.96;77.16;99226.91;4086085;28;20311;-62
2022/06/10 03:02:20;;;;;;;1.50;1.40;;;;;;;10.89;76.89;99234.38;4105028;28;20237;-61
2022/06/10 03:04:31;;;;;;;1.70;1.60;;;;;;;10.89;76.84;99241.75;4106240;28;20207;-61
2022/06/10 03:06:49;;;;;;;2.50;1.50;;;;;;;10.88;76.77;99243.69;4102479;28;20238;-61
2022/06/10 03:09:32;;;;;;;1.83;1.50;;;;;;;10.87;76.57;99234.88;4105491;28;20218;-62
2022/06/10 03:11:39;;;;;;;1.88;1.55;;;;;;;10.87;76.55;99240.34;4081458;28;20295;-60
2022/06/10 03:13:49;;;;;;;1.48;1.38;;;;;;;10.83;76.45;99242.72;4082560;28;20211;-62
2022/06/10 03:16:12;;;;;;;1.65;1.50;;;;;;;10.80;76.48;99240.44;4083387;28;20215;-62
2022/06/10 03:18:48;;;;;;;2.25;2.05;;;;;;;10.77;76.54;99242.81;4105604;28;20203;-63
2022/06/10 03:21:11;;;;;;;8.75;1.42;;;;;;;10.74;76.59;99246.03;4058535;28;20229;-64
2022/06/10 03:23:22;;;;;;;1.88;1.77;;;;;;;10.73;76.51;99244.31;4102351;28;20227;-64
2022/06/10 03:25:27;;;;;;;1.33;1.25;;;;;;;10.71;76.55;99251.94;4085182;28;20690;-62
2022/06/10 03:27:58;;;;;;;3.92;1.70;;;;;;;10.71;76.65;99257.41;4100279;28;20567;-62
2022/06/10 03:30:07;;;;;;;3.53;1.88;;;;;;;10.68;76.80;99258.72;4101648;28;20246;-62
2022/06/10 03:32:24;;;;;;;2.35;1.90;;;;;;;10.63;76.67;99250.38;4101586;28;20583;-63
2022/06/10 03:34:38;;;;;;;4.25;1.80;;;;;;;10.62;76.62;99253.34;4108950;28;20218;-61
2022/06/10 03:36:40;;;;;;;2.25;2.00;;;;;;;10.62;76.69;99259.66;4111710;28;20298;-63
2022/06/10 03:38:47;;;;;;;4.18;1.80;;;;;;;10.62;76.69;99256.91;4095800;28;20683;-62
2022/06/10 03:40:55;;;;;;;2.63;2.10;;;;;;;10.58;76.62;99263.94;4107570;28;20306;-63
2022/06/10 03:43:05;;;;;;;2.55;1.90;;;;;;;10.56;76.56;99259.75;4109962;28;20226;-63
2022/06/10 03:45:13;;;;;;;2.28;1.45;;;;;;;10.53;76.63;99271.13;4101139;28;20215;-62
2022/06/10 03:47:22;;;;;;;1.98;1.88;;;;;;;10.52;76.67;99266.75;4107432;28;20635;-60
2022/06/10 03:49:30;;;;;;;1.85;1.42;;;;;;;10.52;76.47;99269.47;4108540;28;20693;-60
2022/06/10 03:51:32;;;;;;;1.73;1.60;;;;;;;10.55;76.52;99274.50;4092965;28;20207;-60
2022/06/10 03:53:34;;;;;;;4.00;1.85;;;;;;;10.55;76.37;99271.78;4110788;28;20222;-60
2022/06/10 03:55:42;;;;;;;1.80;1.60;;;;;;;10.56;76.60;99270.69;4110919;28;20674;-59
2022/06/10 03:57:44;;;;;;;6.50;2.75;;;;;;;10.56;76.51;99270.69;4107387;28;20301;-60
2022/06/10 03:59:46;;;;;;;1.92;1.60;;;;;;;10.53;76.71;99274.72;4098989;28;20227;-60
2022/06/10 04:01:48;;;;;;;1.70;1.60;;;;;;;10.52;76.69;99274.94;4110251;28;20230;-60
2022/06/10 04:03:50;;;;;;;1.70;1.60;;;;;;;10.51;76.76;99274.13;4115331;28;20637;-60
2022/06/10 04:05:51;;;;;;;1.88;1.77;;;;;;;10.51;76.78;99278.75;4111622;28;20202;-60
2022/06/10 04:08:13;;;;;;;6.50;2.03;;;;;;;10.52;76.76;99281.28;4096896;28;20838;-62
2022/06/10 04:10:20;;;;;;;2.17;1.98;;;;;;;10.55;76.89;99279.97;4113517;28;20217;-60
2022/06/10 04:12:23;;;;;;;4.97;1.70;;;;;;;10.55;77.07;99288.19;4115096;28;20236;-60
2022/06/10 04:14:24;;;;;;;2.28;1.90;;;;;;;10.54;77.09;99294.72;4113364;28;20297;-60
2022/06/10 04:16:28;;;;;;;1.95;1.65;;;;;;;10.51;76.88;99295.19;4110399;28;20209;-60
2022/06/10 04:18:30;;;;;;;1.98;1.83;;;;;;;10.48;76.95;99295.66;4110744;28;20253;-60
2022/06/10 04:20:35;;;;;;;3.70;1.65;;;;;;;10.50;77.01;99301.72;4112464;28;20218;-60
2022/06/10 04:22:37;;;;;;;2.88;1.90;;;;;;;10.46;77.33;99297.75;4110643;28;20229;-60
2022/06/10 04:24:39;;;;;;;3.30;1.95;;;;;;;10.48;77.35;99303.84;4109980;28;20297;-60
2022/06/10 04:26:40;;;;;;;2.53;2.08;;;;;;;10.50;77.50;99305.31;4108600;28;20310;-60
2022/06/10 04:28:42;;;;;;;2.88;2.67;;;;;;;10.53;77.71;99303.97;4111229;28;20203;-60
2022/06/10 04:30:46;;;;;;;1.98;1.88;;;;;;;10.54;77.66;99306.50;4107336;28;20676;-60
2022/06/10 04:32:48;;;;;;;2.58;2.33;;;;;;;10.58;77.64;99307.72;4109035;28;20292;-60
2022/06/10 04:34:50;;;;;;;2.42;2.22;;;;;;;10.63;77.61;99304.28;4088572;28;20228;-60
2022/06/10 04:36:51;;;;;;;8.05;2.40;;;;;;;10.66;77.48;99303.81;4105396;28;20203;-59
2022/06/10 04:38:53;;;;;;;13.27;2.50;;;;;;;10.69;77.64;99308.84;4109256;28;20753;-60
2022/06/10 04:40:54;;;;;;;3.83;1.92;;;;;;;10.72;77.72;99313.84;4103713;28;20603;-60
2022/06/10 04:42:57;;;;;;;1.90;1.80;;;;;;;10.74;77.71;99314.47;4108463;28;20253;-61
2022/06/10 04:44:58;;;;;;;7.30;2.10;;;;;;;10.75;77.58;99314.22;4113307;28;20230;-60
2022/06/10 04:47:00;;;;;;;4.10;2.30;;;;;;;10.78;77.56;99313.75;4109164;28;20439;-60
2022/06/10 04:49:02;;;;;;;3.55;1.98;;;;;;;10.82;77.65;99311.38;4107624;28;20214;-60
2022/06/10 04:51:04;;;;;;;2.53;2.10;;;;;;;10.84;77.63;99319.13;4106653;28;20210;-60
2022/06/10 04:53:06;;;;;;;2.33;1.73;;;;;;;10.88;77.66;99309.38;4110589;28;20357;-60
2022/06/10 04:55:08;;;;;;;2.05;1.80;;;;;;;10.90;78.03;99307.25;4110489;28;20214;-60
2022/06/10 04:57:10;;;;;;;2.25;1.95;;;;;;;10.90;78.65;99312.72;4101833;28;20265;-60
2022/06/10 04:59:11;;;;;;;2.45;2.25;;;;;;;10.97;78.20;99321.69;4109619;28;21895;-60
2022/06/10 05:01:13;;;;;;;2.25;1.90;;;;;;;11.02;78.21;99319.09;4108705;28;20594;-60
2022/06/10 05:03:15;;;;;;;2.42;1.90;;;;;;;11.08;78.47;99320.91;4101275;28;20231;-60
2022/06/10 05:05:17;;;;;;;2.35;2.10;;;;;;;11.05;79.24;99315.88;4102208;28;20211;-60
2022/06/10 05:07:19;;;;;;;3.42;2.28;;;;;;;11.10;78.72;99318.75;4104527;28;20207;-60
2022/06/10 05:09:20;;;;;;;2.88;2.53;;;;;;;11.15;78.76;99321.63;4103488;28;20297;-60
2022/06/10 05:11:22;;;;;;;2.13;1.92;;;;;;;11.22;78.54;99318.78;4104624;28;20305;-59
2022/06/10 05:13:24;;;;;;;2.28;2.05;;;;;;;11.28;78.46;99323.31;4108842;28;20231;-60
2022/06/10 05:15:28;;;;;;;1.98;1.85;;;;;;;11.34;78.48;99320.47;4110629;28;20210;-60
2022/06/10 05:17:30;;;;;;;4.13;2.70;;;;;;;11.40;78.63;99324.19;4109025;28;20206;-60
2022/06/10 05:19:31;;;;;;;3.85;1.90;;;;;;;11.48;78.22;99327.41;4113748;28;20301;-60
2022/06/10 05:21:33;;;;;;;2.05;1.85;;;;;;;11.54;78.39;99329.22;4105252;28;20715;-60
2022/06/10 05:23:34;;;;;;;6.57;1.90;;;;;;;11.56;78.23;99329.00;4103640;28;20232;-60
2022/06/10 05:25:36;;;;;;;2.60;1.70;;;;;;;11.67;78.00;99330.91;4106653;28;20215;-60
2022/06/10 05:27:38;;;;;;;2.42;1.92;;;;;;;11.76;77.94;99322.09;4107728;28;20245;-60
2022/06/10 05:29:40;;;;;;;3.38;2.15;;;;;;;11.84;77.90;99327.22;4106909;28;20626;-60
2022/06/10 05:31:41;;;;;;;2.00;1.90;;;;;;;11.97;77.61;99332.47;4111075;28;20207;-60
2022/06/10 05:36:03;;;;;;;2.70;2.08;;;;;;;12.24;77.11;99333.66;4112966;28;20215;-60
2022/06/10 05:38:06;;;;;;;7.05;1.80;;;;;;;12.43;78.31;99329.69;4109961;28;20856;-60
2022/06/10 05:40:10;;;;;;;2.53;2.33;;;;;;;12.57;78.53;99324.75;4111604;28;20211;-61
2022/06/10 05:42:12;;;;;;;2.03;1.92;;;;;;;12.78;78.92;99333.16;4111864;28;20250;-60
2022/06/10 05:44:14;;;;;;;3.15;2.85;;;;;;;12.89;78.78;99334.22;4110571;28;20689;-60
2022/06/10 05:46:15;;;;;;;3.58;3.28;;;;;;;13.01;78.96;99329.50;4092106;28;20211;-60
2022/06/10 05:48:17;;;;;;;3.17;2.30;;;;;;;13.30;78.26;99333.94;4109545;28;20269;-60
2022/06/10 05:50:27;;;;;;;7.07;2.80;;;;;;;13.47;77.80;99330.13;4106871;28;20198;-60
2022/06/10 05:52:30;;;;;;;10.90;1.98;;;;;;;13.58;77.27;99333.88;4112036;28;20233;-60
2022/06/10 05:54:33;;;;;;;3.00;2.15;;;;;;;13.70;75.69;99329.94;4106956;28;20238;-60
2022/06/10 05:56:35;;;;;;;3.03;2.75;;;;;;;13.80;75.11;99319.13;4108003;28;20206;-60
2022/06/10 05:58:37;;;;;;;3.97;3.15;;;;;;;13.78;75.60;99321.25;4108153;28;20211;-60
2022/06/10 06:00:38;;;;;;;4.18;2.92;;;;;;;13.83;75.03;99324.09;4106036;28;20614;-60
2022/06/10 06:02:41;;;;;;;3.28;2.53;;;;;;;13.85;75.43;99332.97;4106836;28;20273;-60
2022/06/10 06:04:43;;;;;;;3.17;2.88;;;;;;;13.86;75.15;99331.88;4092422;28;20337;-64
2022/06/10 06:06:44;;;;;;;3.65;2.97;;;;;;;14.09;75.71;99333.59;4087810;28;20319;-62
2022/06/10 06:08:48;;;;;;;3.15;2.83;;;;;;;14.18;75.63;99338.44;4109169;28;20246;-60
2022/06/10 06:10:50;;;;;;;3.58;3.10;;;;;;;14.35;75.58;99336.50;4090628;28;21664;-60
2022/06/10 06:12:52;;;;;;;3.47;2.67;;;;;;;14.60;74.45;99334.09;4104162;28;20229;-61
2022/06/10 06:14:54;;;;;;;12.27;3.08;;;;;;;14.69;74.09;99349.06;4110663;28;20202;-64
2022/06/10 06:16:59;;;;;;;3.15;2.10;;;;;;;14.84;73.22;99348.44;4108954;28;20202;-60
2022/06/10 06:19:02;;;;;;;3.85;2.78;;;;;;;14.89;72.69;99340.22;4116350;28;20224;-60
2022/06/10 06:21:04;;;;;;;6.43;2.15;;;;;;;14.98;72.71;99344.19;4109270;28;20206;-58
2022/06/10 06:23:06;;;;;;;4.53;2.95;;;;;;;14.93;71.92;99353.22;4094384;28;20369;-60
2022/06/10 06:25:15;;;;;;;12.93;2.70;;;;;;;14.98;72.03;99349.69;4112000;28;20206;-59
2022/06/10 06:27:16;;;;;;;2.90;2.33;;;;;;;14.99;71.93;99357.72;4110130;28;20213;-60
2022/06/10 06:29:19;;;;;;;6.22;2.92;;;;;;;15.10;72.11;99348.44;4111863;28;20234;-58
2022/06/10 06:31:22;;;;;;;3.55;2.63;;;;;;;15.27;71.82;99345.59;4105570;28;20338;-58
2022/06/10 06:33:23;;;;;;;4.55;2.90;;;;;;;15.39;71.34;99349.91;4112054;28;21061;-59
2022/06/10 06:35:25;;;;;;;2.85;2.47;;;;;;;15.53;71.52;99351.16;4113061;28;20211;-59
2022/06/10 06:37:27;;;;;;;3.53;2.58;;;;;;;15.66;71.60;99356.25;4110502;28;20891;-60
2022/06/10 06:39:28;;;;;;;5.03;2.92;;;;;;;15.62;71.10;99349.56;4112721;28;20743;-61
2022/06/10 06:41:30;;;;;;;3.33;2.00;;;;;;;15.74;70.43;99344.72;4108456;28;20648;-58
2022/06/10 06:43:32;;;;;;;3.92;2.33;;;;;;;15.93;70.87;99348.75;4107306;28;20227;-64
2022/06/10 06:45:34;;;;;;;5.53;2.35;;;;;;;16.09;70.54;99353.28;4106298;28;20321;-59
2022/06/10 06:47:36;;;;;;;4.10;2.53;;;;;;;15.88;69.89;99354.22;4094054;28;20231;-58
2022/06/10 06:49:38;;;;;;;12.70;2.55;;;;;;;16.02;69.90;99347.16;4112639;28;20207;-58
2022/06/10 06:51:40;;;;;;;4.85;2.42;;;;;;;16.11;69.31;99353.88;4111089;28;20202;-62
2022/06/10 06:53:41;;;;;;;2.88;2.45;;;;;;;16.22;70.18;99347.31;4107863;28;20211;-61
2022/06/10 06:55:43;;;;;;;4.82;2.00;;;;;;;16.36;69.69;99340.19;4111480;28;20241;-57
2022/06/10 06:57:45;;;;;;;3.08;2.30;;;;;;;16.55;69.15;99354.47;4111136;28;20237;-59
2022/06/10 06:59:47;;;;;;;4.30;2.50;;;;;;;16.54;69.13;99350.84;4109855;28;20312;-58
2022/06/10 07:01:48;;;;;;;3.08;2.28;;;;;;;16.75;68.84;99358.13;4107902;28;20752;-61
2022/06/10 07:03:50;;;;;;;3.90;2.72;;;;;;;16.90;68.16;99358.19;4112938;28;20210;-58
2022/06/10 07:05:52;;;;;;;4.35;2.47;;;;;;;16.99;68.09;99357.41;4112016;28;20203;-58
2022/06/10 07:07:54;;;;;;;1125.38;84.70;;;;;;;17.11;67.40;99351.66;4105697;28;20735;-59
2022/06/10 07:09:56;;;;;;;3.58;2.00;;;;;;;17.30;67.83;99355.56;4107459;28;20560;-58
2022/06/10 07:11:57;;;;;;;4.05;2.15;;;;;;;17.43;67.99;99350.38;4111497;28;20309;-59
2022/06/10 07:13:59;;;;;;;4.97;1.90;;;;;;;17.60;67.73;99355.69;4088686;28;20210;-60
2022/06/10 07:16:01;;;;;;;3.67;2.05;;;;;;;17.75;67.11;99353.75;4111286;28;20221;-59
2022/06/10 07:18:03;;;;;;;4.45;2.00;;;;;;;17.96;66.77;99355.41;4113376;28;20360;-58
2022/06/10 07:20:06;;;;;;;3.60;2.00;;;;;;;18.10;66.16;99344.59;4111996;28;20206;-61
2022/06/10 07:22:08;;;;;;;3.85;2.05;;;;;;;18.17;65.06;99347.91;4109949;28;20228;-60
2022/06/10 07:24:09;;;;;;;3.22;1.85;;;;;;;18.25;65.71;99344.59;4112707;28;20210;-60
2022/06/10 07:26:11;;;;;;;3.28;1.95;;;;;;;18.40;65.33;99351.00;4117175;28;20210;-62
2022/06/10 07:28:14;;;;;;;3.65;2.17;;;;;;;18.50;64.62;99350.09;4116933;28;20289;-61
2022/06/10 07:30:17;;;;;;;4.88;2.08;;;;;;;18.72;64.50;99353.41;4115694;28;20763;-62
2022/06/10 07:32:19;;;;;;;1.60;1.08;;;;;;;18.84;64.18;99351.13;4109366;28;20219;-60
2022/06/10 07:34:20;;;;;;;2.25;1.60;;;;;;;19.01;64.66;99354.38;4112800;28;20206;-60
2022/06/10 07:36:22;;;;;;;3.53;1.48;;;;;;;19.07;63.20;99344.94;4095455;28;20683;-61
2022/06/10 07:38:24;;;;;;;5.93;1.92;;;;;;;19.15;63.54;99347.09;4115027;28;20215;-59
2022/06/10 07:43:10;;;;;;;2.72;1.73;;;;;;;19.40;62.57;99342.28;4110776;28;20256;-60
2022/06/10 07:45:11;;;;;;;3.85;1.80;;;;;;;19.59;62.82;99343.25;4118888;28;20211;-60
2022/06/10 07:47:14;;;;;;;5.57;2.10;;;;;;;19.65;61.70;99346.84;4116877;28;20207;-59
2022/06/10 07:49:16;;;;;;;2.22;1.10;;;;;;;19.28;61.10;99349.28;4117373;28;20210;-59
2022/06/10 07:51:19;;;;;;;3.08;1.25;;;;;;;19.54;62.40;99348.03;4113653;28;20224;-58
2022/06/10 07:53:21;;;;;;;3.45;1.55;;;;;;;19.68;61.90;99340.69;4118736;28;21176;-59
2022/06/10 07:55:23;;;;;;;1.40;1.08;;;;;;;19.94;62.02;99339.38;4115589;28;20304;-59
2022/06/10 07:57:25;;;;;;;5.07;2.60;;;;;;;20.22;61.43;99339.44;4108252;28;20206;-59
2022/06/10 07:59:26;;;;;;;7.00;1.55;;;;;;;20.15;60.28;99340.91;4117749;28;20212;-59
2022/06/10 08:01:29;;;;;;;1.15;1.00;;;;;;;20.46;59.90;99342.28;4113705;28;20199;-59
2022/06/10 08:03:30;;;;;;;3.17;1.23;;;;;;;20.19;58.77;99337.22;4094148;28;20702;-59
2022/06/10 08:05:33;;;;;;;1.25;0.90;;;;;;;20.25;60.84;99335.25;4111932;28;20288;-59
2022/06/10 08:07:37;;;;;;;1.15;1.05;;;;;;;20.43;59.97;99340.06;4110080;28;20217;-59
2022/06/10 08:09:38;;;;;;;3.78;0.98;;;;;;;20.53;60.16;99342.75;4109127;28;20316;-59
2022/06/10 08:11:40;;;;;;;3.50;1.30;;;;;;;20.84;59.01;99335.72;4109505;28;20217;-58
2022/06/10 08:13:42;;;;;;;5.55;1.33;;;;;;;20.77;60.54;99338.03;4110900;28;20214;-58
2022/06/10 08:15:45;;;;;;;3.72;1.35;;;;;;;21.00;60.53;99337.22;4113310;28;20285;-59
2022/06/10 08:17:47;;;;;;;3.35;1.85;;;;;;;21.24;60.83;99338.03;4112135;28;20685;-59
2022/06/10 08:19:49;;;;;;;991.28;28.58;;;;;;;21.47;58.23;99337.13;4107196;28;20296;-59
2022/06/10 08:24:11;;;;;;;3.47;1.50;;;;;;;21.35;58.03;99339.53;4108455;28;20301;-59
2022/06/10 08:26:13;;;;;;;3.97;2.03;;;;;;;21.45;58.75;99339.41;4108706;28;20294;-58
2022/06/10 08:28:14;;;;;;;4.90;1.10;;;;;;;21.42;56.69;99339.97;4111138;28;20234;-59
2022/06/10 08:30:16;;;;;;;3.05;1.70;;;;;;;21.55;57.90;99331.72;4115067;28;20301;-59
2022/06/10 08:32:17;;;;;;;4.53;1.13;;;;;;;21.87;57.91;99344.91;4111102;28;20234;-59
2022/06/10 08:34:19;;;;;;;3.30;1.38;;;;;;;21.86;57.36;99346.03;4111072;28;20264;-59
2022/06/10 08:36:20;;;;;;;1.63;0.82;;;;;;;22.12;55.02;99344.50;4110580;28;20265;-59
2022/06/10 08:38:24;;;;;;;4.22;0.75;;;;;;;22.25;54.47;99338.13;4110423;28;20775;-59
2022/06/10 08:40:33;;;;;;;5.63;0.95;;;;;;;22.39;53.29;99339.84;4102687;28;20577;-58
2022/06/10 08:42:41;;;;;;;6.00;5.70;;;;;;;22.50;52.21;99340.50;4091017;28;20728;-59
2022/06/10 08:44:55;;;;;;;1005.05;120.20;;;;;;;22.50;52.29;99343.28;4110227;28;20229;-59
2022/06/10 08:47:12;;;;;;;6.22;1.08;;;;;;;22.62;51.43;99340.81;4109836;28;20309;-59
2022/06/10 08:49:43;;;;;;;13.25;0.70;;;;;;;22.52;50.02;99332.63;4097192;28;20206;-59
2022/06/10 08:52:14;;;;;;;2.15;0.82;;;;;;;22.70;50.92;99334.53;4109222;28;20845;-59
2022/06/10 08:54:24;;;;;;;2.85;0.73;;;;;;;22.93;52.47;99339.06;4086638;28;20206;-59
2022/06/10 08:56:27;;;;;;;1.60;0.80;;;;;;;22.96;50.78;99330.09;4094272;28;20202;-59
2022/06/10 08:58:37;;;;;;;3.75;1.20;;;;;;;22.89;48.80;99338.88;4113560;28;20218;-59
2022/06/10 09:00:40;;;;;;;2.15;0.98;;;;;;;22.48;49.40;99340.81;4124051;28;20575;-58
2022/06/10 09:02:48;;;;;;;2.72;1.30;;;;;;;22.19;50.62;99344.94;4112108;28;20316;-60
2022/06/10 09:04:56;;;;;;;2.00;0.90;;;;;;;22.32;50.58;99321.81;4117774;28;20196;-60
2022/06/10 09:07:00;;;;;;;5.00;1.60;;;;;;;22.54;51.79;99335.94;4116633;28;20661;-58
2022/06/10 09:09:06;;;;;;;2.88;1.20;;;;;;;22.97;51.59;99346.53;4104128;28;20574;-58
2022/06/10 09:11:21;;;;;;;3.00;1.42;;;;;;;23.21;51.19;99338.78;4108064;28;23083;-58
2022/06/10 09:13:39;;;;;;;1.25;0.70;;;;;;;22.81;48.46;99335.97;4089074;28;20223;-58
2022/06/10 09:15:53;;;;;;;1.55;1.00;;;;;;;23.03;49.00;99328.53;4107298;28;20201;-58
2022/06/10 09:18:03;;;;;;;1.23;0.80;;;;;;;23.33;48.73;99339.09;4093386;28;20777;-58
2022/06/10 09:20:12;;;;;;;4.53;1.58;;;;;;;23.27;51.09;99331.13;4106300;28;20805;-59
2022/06/10 09:22:39;;;;;;;4.72;0.75;;;;;;;23.36;48.59;99334.84;4104515;28;20851;-58
2022/06/10 09:24:59;;;;;;;1.80;1.00;;;;;;;23.08;46.83;99335.97;4103229;28;20203;-58
2022/06/10 09:27:15;;;;;;;3.05;0.90;;;;;;;22.85;48.08;99337.00;4104276;28;20236;-58
2022/06/10 09:29:16;;;;;;;1.55;0.77;;;;;;;22.30;47.93;99340.84;4109227;28;20297;-58
2022/06/10 09:31:56;;;;;;;1.92;1.00;;;;;;;22.50;49.98;99340.50;4109077;28;20210;-59
2022/06/10 09:34:19;;;;;;;2.45;0.80;;;;;;;22.45;50.23;99327.44;4095385;28;20407;-59
2022/06/10 09:36:29;;;;;;;3.22;1.13;;;;;;;22.06;48.71;99346.56;4102851;28;21321;-58
2022/06/10 09:38:54;;;;;;;2.20;1.00;;;;;;;21.52;49.51;99334.28;4107000;28;20218;-58
2022/06/10 09:41:28;;;;;;;2.28;1.48;;;;;;;21.83;49.99;99338.28;4104067;28;20198;-58
2022/06/10 09:43:44;;;;;;;3.00;1.17;;;;;;;21.62;49.38;99334.09;4104195;28;20225;-58
2022/06/10 09:46:02;;;;;;;2.80;1.20;;;;;;;21.59;50.64;99337.50;4104019;28;20209;-58
2022/06/10 09:48:13;;;;;;;1.63;1.00;;;;;;;22.09;50.60;99333.94;4111155;28;20206;-58
2022/06/10 09:50:22;;;;;;;2.53;0.88;;;;;;;22.30;49.35;99333.28;4108799;28;20217;-58
2022/06/10 09:52:29;;;;;;;2.22;0.90;;;;;;;22.15;49.23;99338.28;4100937;28;20226;-58
2022/06/10 09:54:31;;;;;;;3.38;0.88;;;;;;;22.45;48.20;99332.22;4093761;28;20298;-58
2022/06/10 09:56:53;;;;;;;1.15;0.70;;;;;;;22.63;47.22;99339.69;4107535;28;20194;-58
2022/06/10 09:59:08;;;;;;;1.83;1.00;;;;;;;22.84;47.06;99327.81;4101477;28;20229;-58
2022/06/10 10:01:39;;;;;;;3.95;1.38;;;;;;;23.08;46.93;99324.78;4106363;28;20301;-58
2022/06/10 10:04:08;;;;;;;3.22;0.95;;;;;;;23.63;48.19;99329.19;4088609;28;20254;-59
2022/06/10 10:06:34;;;;;;;2.20;0.93;;;;;;;23.93;45.75;99316.16;4102700;28;20365;-59
2022/06/10 10:08:48;;;;;;;2.85;0.82;;;;;;;23.67;45.30;99317.88;4087725;28;20207;-59
2022/06/10 10:11:20;;;;;;;2.75;0.82;;;;;;;23.83;45.53;99318.34;4096253;28;20592;-58
2022/06/10 10:13:40;;;;;;;4.60;0.88;;;;;;;23.43;44.84;99324.06;4108894;28;20970;-58